Time;durP1;ratioP1;P1;durP2;ratioP2;P2;SDS_P1;SDS_P2;PMS_P1;PMS_P2;Temp;Humidity;BMP_temperature;BMP_pressure;BME280_temperature;BME280_humidity;BME280_pressure;Samples;Min_cycle;Max_cycle;Signal;HPM_P1;HPM_P2
2023/04/04 00:01:25;;;;;;;3.57;1.70;;;2.30;99.90;;;;;;5003078;28;20266;-38
2023/04/04 00:03:51;;;;;;;2.20;1.90;;;2.20;99.90;;;;;;4981630;28;20174;-38
2023/04/04 00:06:18;;;;;;;3.70;1.80;;;2.20;99.90;;;;;;4994032;28;20273;-40
2023/04/04 00:08:43;;;;;;;3.17;1.93;;;2.20;99.90;;;;;;4979963;28;20182;-40
2023/04/04 00:11:09;;;;;;;4.27;2.17;;;2.20;99.90;;;;;;4996859;28;20238;-37
2023/04/04 00:13:36;;;;;;;3.80;2.20;;;2.10;99.90;;;;;;4994362;28;20175;-39
2023/04/04 00:16:02;;;;;;;2.90;1.97;;;2.10;99.90;;;;;;4992989;28;20191;-38
2023/04/04 00:18:27;;;;;;;3.13;2.20;;;2.10;99.90;;;;;;4994070;28;20602;-37
2023/04/04 00:20:53;;;;;;;3.30;1.83;;;2.00;99.90;;;;;;4968591;28;20188;-38
2023/04/04 00:23:19;;;;;;;3.20;2.07;;;2.00;99.90;;;;;;4979586;28;20183;-37
2023/04/04 00:25:52;;;;;;;2.87;2.00;;;2.00;99.90;;;;;;4995697;28;20203;-40
2023/04/04 00:28:19;;;;;;;3.03;2.13;;;1.90;99.90;;;;;;4976493;28;20186;-39
2023/04/04 00:30:45;;;;;;;3.90;1.90;;;1.90;99.90;;;;;;4992557;28;20584;-38
2023/04/04 00:33:12;;;;;;;4.03;2.17;;;1.80;99.90;;;;;;4993095;28;20266;-37
2023/04/04 00:35:38;;;;;;;3.53;2.30;;;1.80;99.90;;;;;;4989910;28;20202;-38
2023/04/04 00:38:04;;;;;;;2.87;1.90;;;1.70;99.90;;;;;;4988569;28;20195;-39
2023/04/04 00:40:30;;;;;;;3.00;2.00;;;1.70;99.90;;;;;;4960797;28;20196;-39
2023/04/04 00:42:56;;;;;;;3.10;2.23;;;1.70;99.90;;;;;;4988325;28;20293;-37
2023/04/04 00:45:22;;;;;;;3.83;2.40;;;1.60;99.90;;;;;;4978939;28;20186;-38
2023/04/04 00:47:49;;;;;;;5.50;2.40;;;1.60;99.90;;;;;;4978741;28;20283;-38
2023/04/04 00:50:15;;;;;;;3.40;2.00;;;1.50;99.90;;;;;;4992190;28;20245;-37
2023/04/04 00:52:41;;;;;;;3.43;2.40;;;1.50;99.90;;;;;;4993406;28;20207;-37
2023/04/04 00:55:07;;;;;;;3.57;2.00;;;1.40;99.90;;;;;;4992703;28;20206;-38
2023/04/04 00:57:33;;;;;;;3.43;2.07;;;1.30;99.90;;;;;;4978251;28;20238;-38
2023/04/04 01:00:03;;;;;;;3.13;2.20;;;1.30;99.90;;;;;;4959927;28;20592;-37
2023/04/04 01:02:30;;;;;;;3.27;2.23;;;1.20;99.90;;;;;;4974662;28;20189;-38
2023/04/04 01:04:56;;;;;;;3.80;2.23;;;1.20;99.90;;;;;;4989982;28;20174;-38
2023/04/04 01:07:22;;;;;;;3.83;2.10;;;1.10;99.90;;;;;;4993836;28;20209;-41
2023/04/04 01:09:49;;;;;;;4.40;1.93;;;1.00;99.90;;;;;;4978918;28;20180;-39
2023/04/04 01:12:15;;;;;;;3.43;2.23;;;1.00;99.90;;;;;;4995114;28;20210;-38
2023/04/04 01:14:41;;;;;;;3.53;2.17;;;0.80;99.90;;;;;;4978108;28;20181;-36
2023/04/04 01:17:08;;;;;;;3.03;2.07;;;0.80;99.90;;;;;;4978456;28;20701;-37
2023/04/04 01:19:52;;;;;;;3.73;2.20;;;0.70;99.90;;;;;;4975752;28;20244;-38
2023/04/04 01:22:20;;;;;;;3.50;2.20;;;0.60;99.90;;;;;;4977679;28;20193;-38
2023/04/04 01:24:48;;;;;;;5.40;2.30;;;0.70;99.90;;;;;;4984908;28;20654;-37
2023/04/04 01:27:15;;;;;;;5.07;2.40;;;0.80;99.90;;;;;;4985169;28;20216;-38
2023/04/04 01:29:55;;;;;;;3.27;2.30;;;0.80;99.90;;;;;;4976595;28;20227;-38
2023/04/04 01:32:36;;;;;;;2.27;1.97;;;0.70;99.90;;;;;;4976420;28;20217;-38
2023/04/04 01:35:41;;;;;;;5.40;2.50;;;0.60;99.90;;;;;;4994912;28;20261;-38
2023/04/04 01:38:26;;;;;;;3.83;2.50;;;0.60;99.90;;;;;;5003742;28;20165;-38
2023/04/04 01:40:58;;;;;;;4.57;2.20;;;0.50;99.90;;;;;;4971199;28;20180;-40
2023/04/04 01:43:24;;;;;;;3.27;2.30;;;0.50;99.90;;;;;;5010706;28;20249;-36
2023/04/04 01:45:50;;;;;;;3.07;2.17;;;0.40;99.90;;;;;;4993729;28;20208;-37
2023/04/04 01:48:16;;;;;;;5.73;2.43;;;0.50;99.90;;;;;;4993680;28;20184;-38
2023/04/04 01:50:45;;;;;;;3.93;2.00;;;0.40;99.90;;;;;;4992789;28;20224;-38
2023/04/04 01:53:11;;;;;;;2.73;2.10;;;0.40;99.90;;;;;;4977752;28;20177;-38
2023/04/04 01:55:37;;;;;;;3.60;1.97;;;0.40;99.90;;;;;;4977229;28;20197;-38
2023/04/04 01:58:03;;;;;;;2.77;1.93;;;0.30;99.90;;;;;;4994293;28;20176;-38
2023/04/04 02:00:29;;;;;;;3.20;2.30;;;0.30;99.90;;;;;;4983479;28;20181;-40
2023/04/04 02:02:55;;;;;;;5.60;2.10;;;0.20;99.90;;;;;;5005595;28;20195;-39
2023/04/04 02:05:21;;;;;;;3.77;1.97;;;0.20;99.90;;;;;;5005157;28;20211;-39
2023/04/04 02:07:48;;;;;;;5.33;2.60;;;0.20;99.90;;;;;;4977170;28;20556;-39
2023/04/04 02:10:23;;;;;;;5.47;2.33;;;0.20;99.90;;;;;;4978559;28;20650;-39
2023/04/04 02:12:52;;;;;;;2.27;2.07;;;0.20;99.90;;;;;;4993789;28;20175;-37
2023/04/04 02:15:20;;;;;;;3.63;2.30;;;0.10;99.90;;;;;;4993481;28;20185;-39
2023/04/04 02:17:47;;;;;;;3.33;2.20;;;0.10;99.90;;;;;;5000830;28;20185;-39
2023/04/04 02:20:17;;;;;;;3.27;2.50;;;0.10;99.90;;;;;;4992487;28;20179;-38
2023/04/04 02:22:49;;;;;;;4.10;2.07;;;0.10;99.90;;;;;;4992958;28;20188;-38
2023/04/04 02:25:15;;;;;;;2.60;2.13;;;0.20;99.90;;;;;;4987229;28;20176;-37
2023/04/04 02:27:42;;;;;;;2.83;2.00;;;0.30;99.90;;;;;;4993246;28;20184;-38
2023/04/04 02:30:08;;;;;;;4.67;2.37;;;0.40;99.90;;;;;;4994317;28;20668;-39
2023/04/04 02:32:34;;;;;;;4.17;2.20;;;0.40;99.90;;;;;;4977599;28;20276;-37
2023/04/04 02:35:00;;;;;;;3.87;2.63;;;0.40;99.90;;;;;;4971949;28;20278;-37
2023/04/04 02:37:26;;;;;;;4.33;2.13;;;0.40;99.90;;;;;;4976997;28;20201;-37
2023/04/04 02:39:54;;;;;;;3.60;2.17;;;0.50;99.90;;;;;;4974211;28;20188;-38
2023/04/04 02:42:21;;;;;;;4.23;2.13;;;0.50;99.90;;;;;;5007892;28;20187;-37
2023/04/04 02:44:48;;;;;;;4.23;2.27;;;0.50;99.90;;;;;;4976244;28;20200;-37
2023/04/04 02:47:16;;;;;;;2.70;2.20;;;0.50;99.90;;;;;;4969506;28;20219;-37
2023/04/04 02:49:42;;;;;;;3.90;2.10;;;0.50;99.90;;;;;;4965958;28;20176;-37
2023/04/04 02:52:08;;;;;;;2.20;1.63;;;0.40;99.90;;;;;;4993523;28;20197;-37
2023/04/04 02:54:38;;;;;;;3.50;2.13;;;0.40;99.90;;;;;;4988286;28;20192;-38
2023/04/04 02:57:06;;;;;;;2.57;2.00;;;0.40;99.90;;;;;;4977066;28;20292;-38
2023/04/04 02:59:32;;;;;;;2.80;2.10;;;0.40;99.90;;;;;;4967310;28;20305;-39
2023/04/04 03:01:58;;;;;;;2.17;1.80;;;0.40;99.90;;;;;;4988231;28;20196;-37
2023/04/04 03:04:24;;;;;;;4.10;2.00;;;0.40;99.90;;;;;;5001338;28;20229;-37
2023/04/04 03:06:51;;;;;;;3.57;2.40;;;0.40;99.90;;;;;;5005442;28;20200;-37
2023/04/04 03:09:16;;;;;;;4.27;2.07;;;0.50;99.90;;;;;;4991710;28;20184;-37
2023/04/04 03:11:42;;;;;;;4.93;2.33;;;0.50;99.90;;;;;;4968590;28;20208;-37
2023/04/04 03:14:08;;;;;;;2.50;2.00;;;0.50;99.90;;;;;;4976948;28;20185;-37
2023/04/04 03:16:37;;;;;;;3.13;1.97;;;0.50;99.90;;;;;;5008040;28;20222;-38
2023/04/04 03:19:03;;;;;;;3.73;2.03;;;0.40;99.90;;;;;;4976613;28;20231;-37
2023/04/04 03:21:29;;;;;;;3.87;2.07;;;0.50;99.90;;;;;;5000241;28;20180;-37
2023/04/04 03:23:57;;;;;;;3.23;2.27;;;0.50;99.90;;;;;;4992614;28;20184;-37
2023/04/04 03:26:24;;;;;;;2.67;2.23;;;0.40;99.90;;;;;;5011053;28;20222;-38
2023/04/04 03:28:50;;;;;;;2.50;1.90;;;0.40;99.90;;;;;;4994117;28;20175;-38
2023/04/04 03:31:19;;;;;;;2.43;2.03;;;0.40;99.90;;;;;;4977802;28;20256;-37
2023/04/04 03:33:45;;;;;;;3.57;2.20;;;0.30;99.90;;;;;;4996638;28;20189;-39
2023/04/04 03:36:12;;;;;;;3.83;2.37;;;0.20;99.90;;;;;;4978712;28;20207;-37
2023/04/04 03:38:38;;;;;;;4.17;2.30;;;0.10;99.90;;;;;;5005054;28;20263;-37
2023/04/04 03:41:04;;;;;;;6.23;2.60;;;0.00;99.90;;;;;;4996728;28;20191;-38
2023/04/04 03:43:31;;;;;;;4.33;2.40;;;-0.10;99.90;;;;;;4980398;28;20226;-37
2023/04/04 03:46:01;;;;;;;3.20;2.17;;;-0.20;99.90;;;;;;4995091;28;20301;-37
2023/04/04 03:48:27;;;;;;;3.03;2.10;;;-0.20;99.90;;;;;;4965324;28;20184;-38
2023/04/04 03:50:54;;;;;;;4.83;2.60;;;-0.30;99.90;;;;;;4995896;28;20199;-38
2023/04/04 03:53:20;;;;;;;4.00;2.70;;;-0.40;99.90;;;;;;4978844;28;20229;-38
2023/04/04 03:55:46;;;;;;;5.13;2.17;;;-0.50;99.90;;;;;;4994600;28;20199;-39
2023/04/04 03:58:12;;;;;;;2.77;2.20;;;-0.50;99.90;;;;;;4980793;28;20204;-40
2023/04/04 04:00:38;;;;;;;3.43;2.10;;;-0.50;99.90;;;;;;4996247;28;20226;-40
2023/04/04 04:03:04;;;;;;;3.50;2.07;;;-0.50;99.90;;;;;;4999314;28;20198;-37
2023/04/04 04:05:30;;;;;;;2.43;2.10;;;-0.50;99.90;;;;;;5011997;28;20203;-38
2023/04/04 04:07:55;;;;;;;3.57;2.37;;;-0.50;99.90;;;;;;4995626;28;20184;-38
2023/04/04 04:10:21;;;;;;;3.80;2.20;;;-0.50;99.90;;;;;;4991087;28;20251;-37
2023/04/04 04:12:47;;;;;;;3.13;2.27;;;-0.50;99.90;;;;;;4999658;28;20179;-38
2023/04/04 04:15:13;;;;;;;4.53;2.17;;;-0.60;99.90;;;;;;4995345;28;20180;-37
2023/04/04 04:17:41;;;;;;;4.17;2.57;;;-0.60;99.90;;;;;;4995941;28;20295;-38
2023/04/04 04:20:10;;;;;;;2.20;2.00;;;-0.60;99.90;;;;;;4995646;28;20175;-38
2023/04/04 04:22:47;;;;;;;2.77;2.10;;;-0.60;99.90;;;;;;4977452;28;20212;-38
2023/04/04 04:25:16;;;;;;;4.10;2.20;;;-0.60;99.90;;;;;;4982641;28;20175;-37
2023/04/04 04:27:49;;;;;;;5.57;2.77;;;-0.70;99.90;;;;;;4994568;28;20176;-38
2023/04/04 04:30:19;;;;;;;3.17;2.43;;;-0.70;99.90;;;;;;5009091;28;20217;-37
2023/04/04 04:32:52;;;;;;;6.10;2.50;;;-0.70;99.90;;;;;;4989747;28;20173;-37
2023/04/04 04:35:23;;;;;;;5.10;2.20;;;-0.80;99.90;;;;;;4975766;28;20321;-37
2023/04/04 04:37:53;;;;;;;3.47;2.30;;;-0.80;99.90;;;;;;4994129;28;20182;-37
2023/04/04 04:40:23;;;;;;;4.37;2.43;;;-0.90;99.90;;;;;;4977442;28;20188;-40
2023/04/04 04:42:55;;;;;;;5.10;2.50;;;-0.90;99.90;;;;;;4981887;28;20175;-43
2023/04/04 04:45:22;;;;;;;4.50;2.93;;;-0.90;99.90;;;;;;4998226;28;20175;-37
2023/04/04 04:47:55;;;;;;;3.67;2.73;;;-0.90;99.90;;;;;;4995155;28;20182;-37
2023/04/04 04:50:21;;;;;;;3.73;2.60;;;-0.90;99.90;;;;;;5002640;28;20179;-40
2023/04/04 04:52:51;;;;;;;2.90;2.30;;;-0.90;99.90;;;;;;4966995;28;20313;-37
2023/04/04 04:55:17;;;;;;;3.57;2.30;;;-0.90;99.90;;;;;;4982321;28;20178;-37
2023/04/04 04:57:48;;;;;;;5.13;2.40;;;-0.90;99.90;;;;;;4994925;28;20318;-37
2023/04/04 05:00:20;;;;;;;5.50;2.57;;;-0.80;99.90;;;;;;4995725;28;20176;-37
2023/04/04 05:02:47;;;;;;;4.00;2.47;;;-0.80;99.90;;;;;;4985140;28;20214;-37
2023/04/04 05:05:18;;;;;;;4.73;2.53;;;-0.90;99.90;;;;;;5000574;28;20183;-37
2023/04/04 05:07:46;;;;;;;5.13;2.57;;;-0.80;99.90;;;;;;4996546;28;20183;-37
2023/04/04 05:10:12;;;;;;;2.83;2.10;;;-0.90;99.90;;;;;;5005418;28;20178;-37
2023/04/04 05:12:42;;;;;;;4.47;2.10;;;-0.90;99.90;;;;;;4998078;28;20206;-37
2023/04/04 05:15:11;;;;;;;3.30;2.27;;;-0.90;99.90;;;;;;5006870;28;20551;-36
2023/04/04 05:17:39;;;;;;;5.00;2.50;;;-0.90;99.90;;;;;;4994822;28;20175;-36
2023/04/04 05:20:07;;;;;;;4.57;2.60;;;-0.90;99.90;;;;;;4993661;28;20538;-37
2023/04/04 05:22:34;;;;;;;4.67;2.60;;;-0.90;99.90;;;;;;4982312;28;20198;-39
2023/04/04 05:25:00;;;;;;;3.30;2.30;;;-0.90;99.90;;;;;;4983603;28;20188;-39
2023/04/04 05:27:26;;;;;;;4.50;2.40;;;-0.90;99.90;;;;;;4969203;28;20206;-37
2023/04/04 05:29:59;;;;;;;4.93;2.83;;;-1.00;99.90;;;;;;4977155;28;20186;-37
2023/04/04 05:32:34;;;;;;;4.07;2.50;;;-1.00;99.90;;;;;;4986481;28;20197;-38
2023/04/04 05:35:08;;;;;;;4.73;2.90;;;-0.90;99.90;;;;;;4999075;28;20175;-38
2023/04/04 05:37:38;;;;;;;3.23;2.17;;;-0.90;99.90;;;;;;4973032;28;20196;-39
2023/04/04 05:40:07;;;;;;;4.90;2.37;;;-0.80;99.90;;;;;;4983200;28;20182;-37
2023/04/04 05:42:34;;;;;;;2.80;2.20;;;-0.80;99.90;;;;;;5014068;28;20183;-37
2023/04/04 05:45:00;;;;;;;2.77;2.20;;;-0.70;99.90;;;;;;4989742;28;20178;-36
2023/04/04 05:47:29;;;;;;;2.93;2.40;;;-0.60;99.90;;;;;;4986983;28;20214;-38
2023/04/04 05:49:55;;;;;;;5.07;2.57;;;-0.50;99.90;;;;;;5004809;28;20180;-39
2023/04/04 05:52:21;;;;;;;3.00;2.40;;;-0.40;99.90;;;;;;5002451;28;20212;-39
2023/04/04 05:54:48;;;;;;;7.70;2.50;;;-0.30;99.90;;;;;;5005933;28;20182;-36
2023/04/04 05:57:22;;;;;;;6.70;2.60;;;-0.10;99.90;;;;;;5013654;28;20229;-38
2023/04/04 05:59:53;;;;;;;4.43;2.20;;;0.10;99.90;;;;;;4998256;28;20170;-40
2023/04/04 06:02:20;;;;;;;3.37;2.23;;;0.20;99.90;;;;;;5029083;28;20198;-38
2023/04/04 06:04:50;;;;;;;3.60;2.60;;;0.30;99.90;;;;;;4991371;28;20270;-37
2023/04/04 06:07:22;;;;;;;4.37;2.13;;;0.40;99.90;;;;;;4978527;28;20207;-38
2023/04/04 06:09:49;;;;;;;4.43;2.30;;;0.50;99.90;;;;;;4978350;28;20191;-37
2023/04/04 06:12:15;;;;;;;3.80;2.40;;;0.50;99.90;;;;;;4997177;28;20231;-39
2023/04/04 06:14:43;;;;;;;4.00;2.97;;;0.60;99.90;;;;;;5023434;28;20212;-40
2023/04/04 06:17:23;;;;;;;3.67;2.60;;;0.70;99.90;;;;;;4999414;28;20199;-40
2023/04/04 06:19:50;;;;;;;2.77;2.10;;;0.80;99.90;;;;;;5011467;28;20183;-41
2023/04/04 06:22:18;;;;;;;2.67;2.47;;;0.90;99.90;;;;;;4995117;28;20180;-43
2023/04/04 06:24:48;;;;;;;3.77;2.40;;;1.00;99.90;;;;;;5009377;28;20201;-38
2023/04/04 06:27:14;;;;;;;4.63;2.40;;;1.20;99.90;;;;;;4977529;28;20757;-37
2023/04/04 06:29:41;;;;;;;4.50;2.30;;;1.30;99.90;;;;;;5009672;28;20276;-37
2023/04/04 06:32:08;;;;;;;3.97;2.23;;;1.40;99.90;;;;;;4977786;28;20228;-37
2023/04/04 06:34:38;;;;;;;4.13;2.17;;;1.50;99.90;;;;;;4977829;28;20218;-39
2023/04/04 06:37:04;;;;;;;5.27;2.30;;;1.70;99.90;;;;;;4993267;28;20231;-37
2023/04/04 06:39:36;;;;;;;3.13;2.17;;;1.80;99.90;;;;;;4993716;28;20197;-37
2023/04/04 06:42:06;;;;;;;3.87;2.40;;;2.00;99.90;;;;;;4993756;28;20210;-38
2023/04/04 06:44:34;;;;;;;4.73;2.50;;;2.10;99.90;;;;;;4991809;28;20186;-40
2023/04/04 06:47:01;;;;;;;5.10;2.53;;;2.20;99.90;;;;;;4986153;28;20214;-38
2023/04/04 06:49:27;;;;;;;3.63;2.40;;;2.30;99.90;;;;;;4983948;28;20226;-39
2023/04/04 06:51:53;;;;;;;4.37;1.97;;;2.20;99.90;;;;;;4984868;28;20202;-40
2023/04/04 06:54:19;;;;;;;4.60;2.20;;;2.30;99.90;;;;;;4984928;28;20206;-40
2023/04/04 06:56:45;;;;;;;5.20;2.90;;;2.40;99.90;;;;;;4968401;28;20201;-40
2023/04/04 06:59:11;;;;;;;5.17;2.23;;;2.50;99.90;;;;;;4981844;28;20175;-38
2023/04/04 07:01:37;;;;;;;3.13;2.13;;;2.60;99.90;;;;;;4989112;28;20178;-39
2023/04/04 07:04:03;;;;;;;3.60;2.40;;;2.70;99.90;;;;;;4988121;28;20198;-38
2023/04/04 07:06:30;;;;;;;3.50;2.20;;;2.80;99.90;;;;;;4993131;28;20195;-37
2023/04/04 07:08:55;;;;;;;3.00;2.20;;;2.90;99.90;;;;;;5004635;28;20187;-38
2023/04/04 07:11:24;;;;;;;3.57;2.00;;;3.00;99.90;;;;;;5006001;28;20207;-40
2023/04/04 07:13:50;;;;;;;4.00;2.50;;;3.10;99.90;;;;;;4992648;28;20191;-38
2023/04/04 07:16:16;;;;;;;3.43;2.30;;;3.10;99.90;;;;;;4992933;28;20215;-39
2023/04/04 07:18:43;;;;;;;4.03;2.50;;;3.20;99.90;;;;;;4967756;28;20172;-39
2023/04/04 07:21:09;;;;;;;2.90;2.43;;;3.30;99.90;;;;;;4983137;28;20274;-37
2023/04/04 07:23:35;;;;;;;4.53;2.20;;;3.30;99.90;;;;;;4999971;28;20198;-37
2023/04/04 07:26:01;;;;;;;4.27;2.13;;;3.40;99.90;;;;;;4987890;28;20199;-38
2023/04/04 07:28:27;;;;;;;2.87;2.20;;;3.50;99.90;;;;;;4990959;28;20186;-38
2023/04/04 07:30:57;;;;;;;4.53;2.33;;;3.40;99.90;;;;;;5012527;28;20294;-39
2023/04/04 07:33:24;;;;;;;4.47;2.33;;;3.40;99.90;;;;;;4973640;28;20187;-38
2023/04/04 07:35:49;;;;;;;9.07;2.27;;;3.50;99.90;;;;;;4980457;28;20192;-40
2023/04/04 07:38:16;;;;;;;2.97;2.37;;;3.60;99.90;;;;;;5013788;28;20262;-39
2023/04/04 07:40:42;;;;;;;3.67;2.63;;;3.70;99.90;;;;;;5015860;28;20229;-39
2023/04/04 07:43:07;;;;;;;2.60;1.93;;;3.80;99.90;;;;;;4992487;28;20175;-39
2023/04/04 07:45:35;;;;;;;4.67;2.40;;;3.80;99.90;;;;;;4966761;28;20210;-42
2023/04/04 07:48:01;;;;;;;3.77;2.50;;;4.00;99.90;;;;;;4987683;28;20183;-39
2023/04/04 07:50:26;;;;;;;3.00;2.30;;;4.10;99.90;;;;;;5012170;28;20183;-39
2023/04/04 07:52:54;;;;;;;3.60;2.53;;;4.20;99.90;;;;;;5013265;28;20807;-40
2023/04/04 07:55:23;;;;;;;4.43;2.43;;;4.30;99.90;;;;;;5011202;28;20175;-39
2023/04/04 07:57:51;;;;;;;3.70;1.97;;;4.50;99.90;;;;;;4988221;28;20267;-39
2023/04/04 08:00:20;;;;;;;4.33;2.03;;;4.60;99.90;;;;;;4970660;28;20214;-39
2023/04/04 08:02:51;;;;;;;2.77;2.07;;;4.80;99.90;;;;;;5011436;28;20194;-40
2023/04/04 08:05:16;;;;;;;3.70;2.23;;;4.90;99.90;;;;;;4984022;28;20186;-39
2023/04/04 08:07:42;;;;;;;6.17;2.40;;;5.00;99.90;;;;;;4980209;28;20187;-39
2023/04/04 08:10:08;;;;;;;3.37;2.23;;;5.10;99.90;;;;;;5012482;28;20203;-39
2023/04/04 08:12:34;;;;;;;3.97;2.20;;;5.20;99.90;;;;;;4986917;28;20218;-39
2023/04/04 08:15:01;;;;;;;5.07;2.67;;;5.20;99.90;;;;;;5016676;28;20179;-40
2023/04/04 08:17:29;;;;;;;6.03;2.73;;;5.20;99.90;;;;;;4986065;28;20195;-40
2023/04/04 08:19:54;;;;;;;3.53;2.27;;;5.30;99.90;;;;;;4996916;28;20182;-39
2023/04/04 08:22:21;;;;;;;3.50;2.40;;;5.50;99.90;;;;;;4981372;28;20184;-39
2023/04/04 08:24:48;;;;;;;3.73;2.57;;;5.60;99.90;;;;;;5013164;28;20181;-39
2023/04/04 08:27:17;;;;;;;3.43;2.40;;;5.70;99.90;;;;;;4996284;28;20199;-42
2023/04/04 08:29:44;;;;;;;4.07;2.33;;;5.70;99.90;;;;;;4997333;28;20175;-39
2023/04/04 08:32:10;;;;;;;5.50;2.60;;;5.90;99.90;;;;;;4993831;28;20299;-39
2023/04/04 08:34:37;;;;;;;4.03;2.53;;;6.10;99.90;;;;;;4993073;28;20267;-41
2023/04/04 08:37:05;;;;;;;5.13;2.60;;;6.00;99.90;;;;;;4988836;28;20197;-40
2023/04/04 08:39:31;;;;;;;6.03;2.67;;;6.20;99.90;;;;;;4994166;28;20192;-39
2023/04/04 08:42:06;;;;;;;3.17;2.50;;;6.20;99.90;;;;;;4981117;28;20205;-39
2023/04/04 08:44:35;;;;;;;3.03;2.20;;;6.20;99.90;;;;;;4992082;28;20173;-41
2023/04/04 08:47:09;;;;;;;3.50;2.30;;;6.40;99.90;;;;;;4979209;28;20221;-43
2023/04/04 08:49:42;;;;;;;5.20;2.90;;;6.40;99.90;;;;;;4980354;28;20281;-40
2023/04/04 08:52:13;;;;;;;3.37;2.00;;;6.60;99.90;;;;;;4995644;28;20204;-42
2023/04/04 08:54:40;;;;;;;3.63;2.87;;;6.70;99.90;;;;;;5006514;28;20181;-37
2023/04/04 08:57:07;;;;;;;3.30;2.23;;;6.80;99.90;;;;;;4979708;28;20205;-41
2023/04/04 08:59:33;;;;;;;4.83;2.70;;;7.00;99.90;;;;;;4996088;28;20185;-41
2023/04/04 09:02:37;;;;;;;3.77;2.37;;;7.10;99.90;;;;;;4992871;28;20212;-41
2023/04/04 09:05:04;;;;;;;3.73;2.43;;;7.10;99.90;;;;;;4965906;28;20200;-40
2023/04/04 09:07:30;;;;;;;3.73;2.20;;;6.90;99.90;;;;;;5010640;28;20213;-43
2023/04/04 09:09:58;;;;;;;3.40;2.47;;;6.90;99.90;;;;;;5009228;28;20185;-40
2023/04/04 09:12:25;;;;;;;3.10;2.60;;;7.00;99.90;;;;;;4993173;28;20203;-41
2023/04/04 09:14:52;;;;;;;4.20;2.40;;;7.00;99.90;;;;;;4993178;28;20184;-40
2023/04/04 09:17:18;;;;;;;3.87;2.37;;;7.10;99.90;;;;;;4982267;28;20190;-42
2023/04/04 09:19:44;;;;;;;3.20;2.23;;;7.10;99.90;;;;;;5008799;28;20175;-38
2023/04/04 09:22:10;;;;;;;4.70;2.80;;;6.90;99.90;;;;;;4969628;28;20189;-38
2023/04/04 09:24:40;;;;;;;5.27;2.90;;;6.90;99.90;;;;;;5010588;28;20268;-38
2023/04/04 09:27:09;;;;;;;4.30;2.73;;;7.20;99.90;;;;;;4994688;28;20260;-38
2023/04/04 09:29:40;;;;;;;5.60;3.30;;;7.50;99.90;;;;;;4988850;28;20186;-39
2023/04/04 09:32:08;;;;;;;3.40;2.10;;;7.80;99.90;;;;;;4994173;28;20275;-43
2023/04/04 09:34:36;;;;;;;3.77;2.40;;;7.90;99.90;;;;;;4977077;28;20199;-43
2023/04/04 09:37:04;;;;;;;3.07;2.23;;;7.90;99.90;;;;;;4991621;28;20285;-42
2023/04/04 09:39:32;;;;;;;3.87;2.50;;;8.10;99.90;;;;;;4987703;28;20186;-40
2023/04/04 09:42:00;;;;;;;19.60;9.03;;;8.10;99.90;;;;;;4990838;28;20188;-39
2023/04/04 09:44:28;;;;;;;8.93;4.90;;;8.20;99.90;;;;;;4975316;28;20202;-41
2023/04/04 09:47:29;;;;;;;4.73;2.63;;;8.10;99.90;;;;;;5004074;28;20216;-39
2023/04/04 09:50:00;;;;;;;3.43;2.43;;;8.20;99.90;;;;;;4999027;28;20195;-41
2023/04/04 09:52:26;;;;;;;6.77;4.40;;;8.20;99.90;;;;;;5005623;28;20290;-39
2023/04/04 09:55:00;;;;;;;3.87;2.47;;;8.40;99.90;;;;;;5005786;28;20258;-41
2023/04/04 09:57:34;;;;;;;6.47;4.10;;;8.50;99.90;;;;;;5006819;28;20218;-39
2023/04/04 10:00:08;;;;;;;6.37;2.63;;;8.60;99.90;;;;;;4992068;28;20186;-44
2023/04/04 10:02:46;;;;;;;4.47;2.77;;;8.70;99.90;;;;;;5004721;28;20183;-40
2023/04/04 10:05:13;;;;;;;3.00;2.30;;;8.80;99.90;;;;;;4996691;28;20211;-39
2023/04/04 10:07:41;;;;;;;4.13;2.50;;;8.80;99.90;;;;;;4982891;28;20172;-38
2023/04/04 10:10:09;;;;;;;4.43;2.67;;;8.90;99.90;;;;;;4991227;28;20183;-40
2023/04/04 10:12:44;;;;;;;4.43;2.40;;;8.90;99.90;;;;;;4985645;28;20276;-40
2023/04/04 10:15:10;;;;;;;3.73;2.60;;;8.60;99.90;;;;;;4971624;28;20171;-38
2023/04/04 10:17:38;;;;;;;3.90;2.70;;;8.60;99.90;;;;;;4987120;28;20213;-40
2023/04/04 10:20:09;;;;;;;7.07;2.63;;;8.70;99.90;;;;;;4999564;28;20255;-38
2023/04/04 10:22:37;;;;;;;3.30;2.60;;;8.70;99.90;;;;;;4989701;28;20274;-40
2023/04/04 10:25:11;;;;;;;2.53;2.13;;;8.70;99.90;;;;;;4981551;28;20187;-38
2023/04/04 10:27:37;;;;;;;3.37;2.53;;;8.90;99.90;;;;;;4999340;28;20261;-37
2023/04/04 10:30:04;;;;;;;3.47;2.80;;;8.70;99.90;;;;;;4983001;28;20191;-37
2023/04/04 10:33:05;;;;;;;5.17;2.57;;;8.90;99.90;;;;;;4996926;28;20202;-42
2023/04/04 10:35:34;;;;;;;3.57;2.40;;;8.80;99.90;;;;;;4972654;28;20201;-37
2023/04/04 10:38:07;;;;;;;4.37;2.70;;;9.00;99.90;;;;;;5003823;28;20269;-43
2023/04/04 10:40:38;;;;;;;4.23;2.67;;;9.10;99.90;;;;;;4986418;28;20195;-38
2023/04/04 10:43:05;;;;;;;3.40;2.37;;;8.70;99.90;;;;;;4997924;28;20175;-41
2023/04/04 10:45:34;;;;;;;3.90;2.40;;;9.00;99.90;;;;;;5003954;28;20207;-37
2023/04/04 10:48:02;;;;;;;4.30;2.70;;;8.80;99.90;;;;;;4985139;28;20672;-38
2023/04/04 10:50:32;;;;;;;4.30;2.70;;;9.00;99.90;;;;;;4978419;28;20188;-40
2023/04/04 10:53:01;;;;;;;3.50;2.73;;;8.90;99.90;;;;;;4993881;28;20201;-39
2023/04/04 10:55:28;;;;;;;3.63;2.60;;;8.70;99.90;;;;;;4993320;28;20695;-38
2023/04/04 10:57:55;;;;;;;3.30;2.50;;;8.70;99.90;;;;;;4977720;28;20228;-39
2023/04/04 11:00:25;;;;;;;3.07;2.20;;;8.90;99.90;;;;;;4993922;28;20255;-37
2023/04/04 11:02:58;;;;;;;3.90;2.57;;;9.10;99.90;;;;;;5011155;28;20230;-38
2023/04/04 11:05:29;;;;;;;2.70;2.17;;;9.30;99.90;;;;;;4977075;28;20277;-39
2023/04/04 11:08:00;;;;;;;3.00;2.13;;;9.50;99.90;;;;;;4993835;28;20183;-38
2023/04/04 11:10:51;;;;;;;2.60;2.23;;;9.70;99.90;;;;;;4977333;28;20245;-38
2023/04/04 11:13:28;;;;;;;2.10;1.90;;;9.90;99.90;;;;;;4969230;28;20266;-39
2023/04/04 11:16:03;;;;;;;2.63;2.10;;;10.20;99.90;;;;;;4977411;28;20285;-40
2023/04/04 11:18:41;;;;;;;4.53;2.67;;;10.30;99.90;;;;;;4974216;28;20194;-37
2023/04/04 11:21:09;;;;;;;4.70;2.40;;;10.40;99.90;;;;;;4992649;28;20256;-38
2023/04/04 11:24:00;;;;;;;4.10;2.33;;;10.20;99.90;;;;;;4990420;28;20211;-37
2023/04/04 11:26:29;;;;;;;4.40;2.57;;;10.20;99.90;;;;;;4976050;28;20370;-41
2023/04/04 11:28:56;;;;;;;2.73;2.20;;;10.10;99.90;;;;;;5004254;28;20175;-38
2023/04/04 11:31:24;;;;;;;6.90;4.47;;;10.30;99.90;;;;;;5004215;28;20353;-39
2023/04/04 11:34:09;;;;;;;5.23;3.20;;;10.30;99.90;;;;;;4985091;28;20180;-38
2023/04/04 11:36:37;;;;;;;3.77;2.63;;;9.90;99.90;;;;;;4997086;28;20265;-37
2023/04/04 11:39:14;;;;;;;8.03;2.40;;;9.80;99.90;;;;;;4996543;28;20186;-37
2023/04/04 11:41:43;;;;;;;4.40;2.97;;;9.90;99.90;;;;;;4991991;28;20191;-38
2023/04/04 11:44:10;;;;;;;3.37;2.70;;;10.10;99.90;;;;;;4993066;28;20203;-38
2023/04/04 11:46:36;;;;;;;3.60;2.60;;;10.10;99.90;;;;;;5000821;23;20215;-86
2023/04/04 11:49:03;;;;;;;6.17;2.80;;;10.40;99.90;;;;;;5002166;28;20174;-84
2023/04/04 11:51:30;;;;;;;3.20;2.27;;;10.20;99.90;;;;;;5018038;28;20260;-90
2023/04/04 11:53:56;;;;;;;5.20;2.57;;;10.50;99.90;;;;;;5017331;28;20183;-90
2023/04/04 11:56:23;;;;;;;2.97;2.40;;;10.80;99.90;;;;;;5006624;28;20206;-90
2023/04/04 11:58:50;;;;;;;3.10;2.30;;;10.90;99.90;;;;;;4997509;28;20190;-91
2023/04/04 12:01:19;;;;;;;7.50;4.97;;;10.70;99.90;;;;;;4997756;28;20183;-90
2023/04/04 12:03:47;;;;;;;5.23;2.53;;;9.90;99.90;;;;;;4981174;28;20206;-90
2023/04/04 12:06:15;;;;;;;3.50;2.40;;;9.90;99.90;;;;;;4998044;28;20262;-90
2023/04/04 12:08:41;;;;;;;3.37;2.47;;;10.20;99.90;;;;;;4998010;28;20269;-90
2023/04/04 12:11:10;;;;;;;3.57;2.40;;;10.50;99.90;;;;;;4999143;28;20203;-90
2023/04/04 12:13:43;;;;;;;4.00;2.63;;;10.50;99.90;;;;;;4998999;28;20184;-90
2023/04/04 12:16:09;;;;;;;4.80;2.70;;;10.60;99.90;;;;;;4986132;28;20199;-89
2023/04/04 12:18:36;;;;;;;6.47;4.33;;;11.00;99.90;;;;;;4997487;28;20179;-90
2023/04/04 12:21:02;;;;;;;5.20;3.30;;;10.50;99.90;;;;;;4982018;28;20275;-90
2023/04/04 12:23:35;;;;;;;6.13;3.27;;;10.20;99.90;;;;;;4998190;28;20184;-89
2023/04/04 12:26:04;;;;;;;4.93;2.60;;;10.40;99.90;;;;;;4997372;28;20201;-90
2023/04/04 12:28:33;;;;;;;4.20;2.63;;;10.70;99.90;;;;;;4996044;28;20256;-90
2023/04/04 12:31:04;;;;;;;4.57;2.30;;;11.00;99.90;;;;;;4980863;28;20211;-89
2023/04/04 12:33:34;;;;;;;3.63;2.43;;;11.30;99.90;;;;;;4981119;28;20168;-90
2023/04/04 12:36:04;;;;;;;3.30;2.43;;;11.40;99.90;;;;;;4981874;28;20688;-90
2023/04/04 12:38:30;;;;;;;3.30;2.97;;;11.60;99.90;;;;;;4996833;28;20179;-89
2023/04/04 12:40:57;;;;;;;8.53;4.77;;;11.40;99.90;;;;;;4996942;28;20644;-90
2023/04/04 12:43:26;;;;;;;3.90;2.80;;;10.90;99.90;;;;;;4980940;28;20189;-90
2023/04/04 12:45:55;;;;;;;10.27;5.23;;;10.60;99.90;;;;;;4980447;28;20286;-90
2023/04/04 12:48:27;;;;;;;4.23;3.23;;;10.80;99.90;;;;;;4996135;28;20227;-90
2023/04/04 12:50:58;;;;;;;11.00;6.30;;;10.70;99.90;;;;;;4961047;28;20184;-90
2023/04/04 12:53:26;;;;;;;4.63;2.73;;;10.50;99.90;;;;;;4977494;28;20249;-90
2023/04/04 12:55:54;;;;;;;5.37;2.70;;;10.70;99.90;;;;;;4961098;28;20254;-90
2023/04/04 12:58:23;;;;;;;4.17;2.43;;;10.80;99.90;;;;;;4959871;28;20173;-90
2023/04/04 13:00:55;;;;;;;3.50;2.60;;;11.10;99.90;;;;;;4976958;28;20222;-89